Home > Products > Valid Products > MTR

000
SAUS43 KDTX 231454
MTRP58
METAR KP58 231451Z AUTO 22008KT 190V250 17/M01 A3035 RMK AO1 SLP278
T01671011 58003





000
SAUS43 KDTX 231352
MTRP58
METAR KP58 231351Z AUTO 23009KT 14/M02 A3036 RMK AO1 SLP283
T01391017





000
SAUS43 KDTX 231253
MTRP58
METAR KP58 231251Z AUTO VRB04KT 12/M02 A3036 RMK AO1 SLP284
T01171017





000
SAUS43 KDTX 231253
MTRP58
METAR KP58 231251Z AUTO VRB04KT 12/M02 A3036 RMK AO1 SLP284
T01171017





000
SAUS43 KDTX 231155 COR
MTRP58
METAR KP58 231151Z AUTO 21006KT 08/M04 A3036 RMK AO1 SLP285
T00781039 10078 20028 53017





000
SAUS43 KDTX 231155 COR
MTRP58
METAR KP58 231151Z AUTO 21006KT 08/M04 A3036 RMK AO1 SLP285
T00781039 10078 20028 53017





000
SAUS43 KDTX 231154
MTRP58
METAR KP58 231151Z AUTO 21006KT 08/M04 A3036 RMK AO1 SLP285
T00781039 10078 20028 53017





000
SAUS43 KDTX 231154
MTRP58
METAR KP58 231151Z AUTO 21006KT 08/M04 A3036 RMK AO1 SLP285
T00781039 10078 20028 53017





000
SAUS43 KDTX 231053
MTRP58
METAR KP58 231051Z AUTO 21006KT 06/M05 A3034 RMK AO1 SLP280
T00561050





000
SAUS43 KDTX 231053
MTRP58
METAR KP58 231051Z AUTO 21006KT 06/M05 A3034 RMK AO1 SLP280
T00561050





000
SAUS43 KDTX 230954 COR
MTRP58
METAR KP58 230951Z AUTO 22008KT 05/M06 A3032 RMK AO1 SLP274
T00501056





000
SAUS43 KDTX 230854
MTRP58
METAR KP58 230851Z AUTO 19004KT 04/M05 A3031 RMK AO1 SLP270
T00391050 58001





000
SAUS43 KDTX 230854
MTRP58
METAR KP58 230851Z AUTO 19004KT 04/M05 A3031 RMK AO1 SLP270
T00391050 58001





000
SAUS43 KDTX 230753
MTRP58
METAR KP58 230751Z AUTO 20004KT 04/M06 A3031 RMK AO1 SLP272
T00391056





000
SAUS43 KDTX 230753
MTRP58
METAR KP58 230751Z AUTO 20004KT 04/M06 A3031 RMK AO1 SLP272
T00391056





000
SAUS43 KDTX 230654 COR
MTRP58
METAR KP58 230651Z AUTO 22007KT 03/M04 A3032 RMK AO1 SLP274
T00331044





000
SAUS43 KDTX 230653
MTRP58
METAR KP58 230651Z AUTO 22007KT 03/M04 A3032 RMK AO1 SLP274
T00331044





000
SAUS43 KDTX 230554
MTRP58
METAR KP58 230551Z AUTO 22006KT 04/M04 A3031 RMK AO1 SLP270
T00391044 10078 20033 53004





000
SAUS43 KDTX 230554
MTRP58
METAR KP58 230551Z AUTO 22006KT 04/M04 A3031 RMK AO1 SLP270
T00391044 10078 20033 53004





000
SAUS43 KDTX 230454
MTRP58
METAR KP58 230451Z AUTO 22006KT 04/M03 A3030 RMK AO1 SLP268
T00391033 401060033





000
SAUS43 KDTX 230354 COR
MTRP58
METAR KP58 230351Z AUTO 21005KT 04/M03 A3030 RMK AO1 SLP266
T00441028





000
SAUS43 KDTX 230353
MTRP58
METAR KP58 230351Z AUTO 21005KT 04/M03 A3030 RMK AO1 SLP266
T00441028





000
SAUS43 KDTX 230253 COR
MTRP58
METAR KP58 230251Z AUTO 21005KT 04/M01 A3030 RMK AO1 SLP266
T00441011





000
SAUS43 KDTX 230154
MTRP58
METAR KP58 230151Z AUTO 20004KT 05/M02 A3030 RMK AO1 SLP264
T00501017





000
SAUS43 KDTX 230154
MTRP58
METAR KP58 230151Z AUTO 20004KT 05/M02 A3030 RMK AO1 SLP264
T00501017





000
SAUS43 KDTX 230053
MTRP58
METAR KP58 230051Z AUTO 11006KT 07/M03 A3029 RMK AO1 SLP261
T00721033





000
SAUS43 KDTX 230053
MTRP58
METAR KP58 230051Z AUTO 11006KT 07/M03 A3029 RMK AO1 SLP261
T00721033





000
SAUS43 KDTX 222354 COR
MTRP58
METAR KP58 222351Z AUTO 10006KT 07/M03 A3027 RMK AO1 SLP256
T00721028 10078 20072 52004





000
SAUS43 KDTX 222253
MTRP58
METAR KP58 222251Z AUTO 09005KT 07/M02 A3027 RMK AO1 SLP254
T00721022





000
SAUS43 KDTX 222154
MTRP58
METAR KP58 222151Z AUTO 06008KT 08/M02 A3027 RMK AO1 SLP254
T00781022





000
SAUS43 KDTX 222054
MTRP58
METAR KP58 222051Z AUTO 06008KT 07/M01 A3026 RMK AO1 SLP252
T00721011 51013





000
SAUS43 KDTX 221953
MTRP58
METAR KP58 221951Z AUTO 05007KT 08/M02 A3025 RMK AO1 SLP249
T00781017





000
SAUS43 KDTX 221953
MTRP58
METAR KP58 221951Z AUTO 05007KT 08/M02 A3025 RMK AO1 SLP249
T00781017





000
SAUS43 KDTX 221852
MTRP58
METAR KP58 221851Z AUTO 05006KT 07/02 A3024 RMK AO1 SLP245 T00720017





000
SAUS43 KDTX 221852
MTRP58
METAR KP58 221851Z AUTO 05006KT 07/02 A3024 RMK AO1 SLP245 T00720017





000
SAUS43 KDTX 221754
MTRP58
METAR KP58 221751Z AUTO 06006KT 08/01 A3022 RMK AO1 SLP238 T00780011
10100 20067





000
SAUS43 KDTX 221754
MTRP58
METAR KP58 221751Z AUTO 06006KT 08/01 A3022 RMK AO1 SLP238 T00780011
10100 20067





000
SAUS43 KDTX 221654
MTRP58
METAR KP58 221651Z AUTO 02005KT 08/01 A3021 RMK AO1 SLP233 T00830011





000
SAUS43 KDTX 221554
MTRP58
METAR KP58 221551Z AUTO 02006KT 09/02 A3019 RMK AO1 SLP227 T00890017





000
SAUS43 KDTX 221554
MTRP58
METAR KP58 221551Z AUTO 02006KT 09/02 A3019 RMK AO1 SLP227 T00890017





000
SAUS43 KDTX 221454
MTRP58
METAR KP58 221451Z AUTO 34005KT 09/02 A3018 RMK AO1 SLP223 T00890022
51023





000
SAUS43 KDTX 221354
MTRP58
METAR KP58 221351Z AUTO 35005KT 09/02 A3017 RMK AO1 SLP218 T00890022





000
SAUS43 KDTX 221253
MTRP58
METAR KP58 221251Z AUTO 34004KT 08/03 A3013 RMK AO1 SLP206 T00830028





000
SAUS43 KDTX 221253
MTRP58
METAR KP58 221251Z AUTO 34004KT 08/03 A3013 RMK AO1 SLP206 T00830028





000
SAUS43 KDTX 221154
MTRP58
METAR KP58 221151Z AUTO 01009KT 07/03 A3011 RMK AO1 SLP197 T00720028
10100 20061 53035





000
SAUS43 KDTX 221154
MTRP58
METAR KP58 221151Z AUTO 01009KT 07/03 A3011 RMK AO1 SLP197 T00720028
10100 20061 53035





000
SAUS43 KDTX 221053
MTRP58
METAR KP58 221051Z AUTO 36008G16KT 07/03 A3008 RMK AO1 SLP185
T00670033





000
SAUS43 KDTX 220954 COR
MTRP58
METAR KP58 220951Z AUTO 34007KT 320V020 07/03 A3004 RMK AO1 SLP171
T00670033





000
SAUS43 KDTX 220853
MTRP58
METAR KP58 220851Z AUTO 32013G22KT 08/01 A3001 RMK AO1 SLP160
T00780011 53012





000
SAUS43 KDTX 220754
MTRP58
METAR KP58 220751Z AUTO 31013G21KT 09/00 A2999 RMK AO1 SLP153
T00890000





000
SAUS43 KDTX 220654
MTRP58
METAR KP58 220651Z AUTO 30011G17KT 09/00 A2997 RMK AO1 SLP148
T00890000





000
SAUS43 KDTX 220654
MTRP58
METAR KP58 220651Z AUTO 30011G17KT 09/00 A2997 RMK AO1 SLP148
T00890000





000
SAUS43 KDTX 220552
MTRP58
METAR KP58 220551Z AUTO 31012G20KT 10/02 A2997 RMK AO1 SLP147
T01000017 10189 20094 401060100





000
SAUS43 KDTX 220354
MTRP58
METAR KP58 220351Z AUTO 34007KT 10/04 A2995 RMK AO1 SLP140 T01000039





000
SAUS43 KDTX 220253
MTRP58
METAR KP58 220251Z AUTO VRB04KT 09/04 A2993 RMK AO1 SLP137 T00940039
51027





000
SAUS43 KDTX 220253
MTRP58
METAR KP58 220251Z AUTO VRB04KT 09/04 A2993 RMK AO1 SLP137 T00940039
51027





000
SAUS43 KDTX 220154 COR
MTRP58
METAR KP58 220151Z AUTO 36008KT 10/04 A2992 RMK AO1 SLP131 T01000044





000
SAUS43 KDTX 220054
MTRP58
METAR KP58 220051Z AUTO 01009KT 12/05 A2989 RMK AO1 SLP123 T01220050





000
SAUS43 KDTX 212354
MTRP58
METAR KP58 212351Z AUTO 27011G18KT 18/02 A2985 RMK AO1 SLP108
T01830017 10206 20183 53004





000
SAUS43 KDTX 212354
MTRP58
METAR KP58 212351Z AUTO 27011G18KT 18/02 A2985 RMK AO1 SLP108
T01830017 10206 20183 53004





000
SAUS43 KDTX 212253 COR
MTRP58
METAR KP58 212251Z AUTO 27009KT 19/01 A2985 RMK AO1 PK WND
24026/2229 SLP107 T01890011





000
SAUS43 KDTX 212253 COR
MTRP58
METAR KP58 212251Z AUTO 27009KT 19/01 A2985 RMK AO1 PK WND
24026/2229 SLP107 T01890011





000
SAUS43 KDTX 212154 COR
MTRP58
METAR KP58 212151Z AUTO 26007KT 230V290 19/00 A2985 RMK AO1 SLP106
T01940000 $





000
SAUS43 KDTX 212154 COR
MTRP58
METAR KP58 212151Z AUTO 26007KT 230V290 19/00 A2985 RMK AO1 SLP106
T01940000 $





000
SAUS43 KDTX 212054
MTRP58
METAR KP58 212051Z AUTO VRB06G15KT 20/00 A2984 RMK AO1 SLP105
T02000000 56013 $





000
SAUS43 KDTX 211955 COR
MTRP58
METAR KP58 211951Z AUTO 26008G19KT 200V290 19/01 A2985 RMK AO1
SLP108 T01940006 $





000
SAUS43 KDTX 211955 COR
MTRP58
METAR KP58 211951Z AUTO 26008G19KT 200V290 19/01 A2985 RMK AO1
SLP108 T01940006 $





000
SAUS43 KDTX 211954
MTRP58
METAR KP58 211951Z AUTO 26008G19KT 200V290 19/01 A2985 RMK AO1
SLP108 T01940006 $





000
SAUS43 KDTX 211954
MTRP58
METAR KP58 211951Z AUTO 26008G19KT 200V290 19/01 A2985 RMK AO1
SLP108 T01940006 $





000
SAUS43 KDTX 211853 COR
MTRP58
METAR KP58 211851Z AUTO 25009G19KT 210V320 19/02 A2987 RMK AO1
SLP112 T01940022 $





000
SAUS43 KDTX 211853 COR
MTRP58
METAR KP58 211851Z AUTO 25009G19KT 210V320 19/02 A2987 RMK AO1
SLP112 T01940022 $





000
SAUS43 KDTX 211753
MTRP58
METAR KP58 211751Z AUTO 28011KT 18/01 A2988 RMK AO1 SLP118 T01830011
10183 20106 58018





000
SAUS43 KDTX 211753
MTRP58
METAR KP58 211751Z AUTO 28011KT 18/01 A2988 RMK AO1 SLP118 T01830011
10183 20106 58018





000
SAUS43 KDTX 211654
MTRP58
METAR KP58 211651Z AUTO 25007G19KT 180V300 18/02 A2990 RMK AO1
SLP124 T01780017





000
SAUS43 KDTX 211654
MTRP58
METAR KP58 211651Z AUTO 25007G19KT 180V300 18/02 A2990 RMK AO1
SLP124 T01780017





000
SAUS43 KDTX 211554
MTRP58
METAR KP58 211551Z AUTO 24009G17KT 220V280 16/02 A2992 RMK AO1
SLP132 T01610022





000
SAUS43 KDTX 211454
MTRP58
METAR KP58 211451Z AUTO 25009KT 220V300 14/02 A2993 RMK AO1 SLP138
T01440022 58010





000
SAUS43 KDTX 211354
MTRP58
METAR KP58 211351Z AUTO 25007G16KT 13/03 A2995 RMK AO1 SLP144
T01330033





000
SAUS43 KDTX 211254 COR
MTRP58
METAR KP58 211251Z AUTO 22007KT 180V260 12/03 A2996 RMK AO1 SLP146
T01220033





000
SAUS43 KDTX 211254 COR
MTRP58
METAR KP58 211251Z AUTO 22007KT 180V260 12/03 A2996 RMK AO1 SLP146
T01220033





000
SAUS43 KDTX 211153
MTRP58
METAR KP58 211151Z AUTO 23004KT 11/02 A2997 RMK AO1 SLP150 T01060022
10106 20061 58007





000
SAUS43 KDTX 211153
MTRP58
METAR KP58 211151Z AUTO 23004KT 11/02 A2997 RMK AO1 SLP150 T01060022
10106 20061 58007





000
SAUS43 KDTX 211054
MTRP58
METAR KP58 211051Z AUTO 23004KT 07/02 A2997 RMK AO1 SLP155 T00720017





000
SAUS43 KDTX 211054
MTRP58
METAR KP58 211051Z AUTO 23004KT 07/02 A2997 RMK AO1 SLP155 T00720017





000
SAUS43 KDTX 210953
MTRP58
METAR KP58 210951Z AUTO 23003KT 07/03 A2998 RMK AO1 SLP156 T00670028





000
SAUS43 KDTX 210855 COR
MTRP58
METAR KP58 210851Z AUTO 25003KT 08/03 A2999 RMK AO1 SLP158 T00780028





000
SAUS43 KDTX 210855 COR
MTRP58
METAR KP58 210851Z AUTO 25003KT 08/03 A2999 RMK AO1 SLP158 T00780028





000
SAUS43 KDTX 210854
MTRP58
METAR KP58 210851Z AUTO 25003KT 08/03 A2999 RMK AO1 SLP158 T00780028





000
SAUS43 KDTX 210854
MTRP58
METAR KP58 210851Z AUTO 25003KT 08/03 A2999 RMK AO1 SLP158 T00780028





000
SAUS43 KDTX 210754 COR
MTRP58
METAR KP58 210751Z AUTO 26004KT 09/02 A2999 RMK AO1 SLP159 T00890022





000
SAUS43 KDTX 210653 COR
MTRP58
METAR KP58 210651Z AUTO 26004KT 09/04 A3000 RMK AO1 SLP162 T00890039





000
SAUS43 KDTX 210653 COR
MTRP58
METAR KP58 210651Z AUTO 26004KT 09/04 A3000 RMK AO1 SLP162 T00890039





000
SAUS43 KDTX 210554 COR
MTRP58
METAR KP58 210551Z AUTO 27004KT 09/03 A3000 RMK AO1 SLP163 T00940028
10100 20072 58005 $





000
SAUS43 KDTX 210554 COR
MTRP58
METAR KP58 210551Z AUTO 27004KT 09/03 A3000 RMK AO1 SLP163 T00940028
10100 20072 58005 $





000
SAUS43 KDTX 210452
MTRP58
METAR KP58 210451Z AUTO 26003KT 10/01 A3002 RMK AO1 SLP167 T01000011
401000039 $





000
SAUS43 KDTX 210354
MTRP58
METAR KP58 210351Z AUTO 23004KT 09/00 A3002 RMK AO1 SLP168 T00890000
$





000
SAUS43 KDTX 210253
MTRP58
METAR KP58 210251Z AUTO 19004KT 08/M02 A3002 RMK AO1 SLP170
T00781017 56017 $





000
SAUS43 KDTX 210154
MTRP58
METAR KP58 210151Z AUTO 16004KT 07/M03 A3003 RMK AO1 SLP173
T00721033 $





000
SAUS43 KDTX 210154
MTRP58
METAR KP58 210151Z AUTO 16004KT 07/M03 A3003 RMK AO1 SLP173
T00721033 $





000
SAUS43 KDTX 210054
MTRP58
METAR KP58 210051Z AUTO 15004KT 08/M04 A3005 RMK AO1 SLP180
T00781044 $





000
SAUS43 KDTX 210054
MTRP58
METAR KP58 210051Z AUTO 15004KT 08/M04 A3005 RMK AO1 SLP180
T00781044 $





000
SAUS43 KDTX 202354 COR
MTRP58
METAR KP58 202351Z AUTO 15006KT 08/M04 A3007 RMK AO1 SLP189
T00831039 10094 20078 56020 $





000
SAUS43 KDTX 202354 COR
MTRP58
METAR KP58 202351Z AUTO 15006KT 08/M04 A3007 RMK AO1 SLP189
T00831039 10094 20078 56020 $





000
SAUS43 KDTX 202254
MTRP58
METAR KP58 202251Z AUTO 15006KT 08/M03 A3009 RMK AO1 SLP194
T00831033 $





000
SAUS43 KDTX 202154
MTRP58
METAR KP58 202151Z AUTO 14008KT 09/M01 A3011 RMK AO1 SLP203
T00891011 $





000
SAUS43 KDTX 202053 COR
MTRP58
METAR KP58 202051Z AUTO 10006KT 08/00 A3013 RMK AO1 SLP210 T00830000
56014 $





000
SAUS43 KDTX 201952
MTRP58
METAR KP58 201951Z AUTO 07004KT 08/M02 A3014 RMK AO1 SLP213
T00831022 $





000
SAUS43 KDTX 201854
MTRP58
METAR KP58 201851Z AUTO 07006KT 08/M01 A3016 RMK AO1 SLP218
T00831011 $





000
SAUS43 KDTX 201752
MTRP58
METAR KP58 201751Z AUTO 02003KT 09/M02 A3017 RMK AO1 SLP223
T00891022 10094 20050 58006 $





000
SAUS43 KDTX 201752
MTRP58
METAR KP58 201751Z AUTO 02003KT 09/M02 A3017 RMK AO1 SLP223
T00891022 10094 20050 58006 $





000
SAUS43 KDTX 201654 COR
MTRP58
METAR KP58 201651Z AUTO 33006KT 08/M01 A3019 RMK AO1 SLP228
T00831011 $





000
SAUS43 KDTX 201553
MTRP58
METAR KP58 201551Z AUTO 32007KT 08/00 A3019 RMK AO1 SLP229 T00780000
$





    US Dept of Commerce
    National Oceanic and Atmospheric Administration
    National Weather Service
    1325 East West Highway
    Silver Spring, MD 20910
    Page Author: NWS Internet Services Team
Disclaimer
Information Quality
Credits
Glossary
Privacy Policy
Freedom of Information Act (FOIA)
About Us
Career Opportunities